Time;durP1;ratioP1;P1;durP2;ratioP2;P2;SDS_P1;SDS_P2;PMS_P1;PMS_P2;Temp;Humidity;BMP_temperature;BMP_pressure;BME280_temperature;BME280_humidity;BME280_pressure;Samples;Min_cycle;Max_cycle;Signal;HPM_P1;HPM_P2
2022/08/09 00:01:47;;;;;;;;;14.50;14.00;;;;;19.92;84.76;100031.75;6289001;20;2491975;-60
2022/08/09 00:04:23;;;;;;;;;16.00;12.33;;;;;19.66;85.73;100020.56;6285763;20;3532673;-60
2022/08/09 00:07:04;;;;;;;;;16.00;14.00;;;;;19.62;86.53;100028.19;6281972;20;2492113;-60
2022/08/09 00:09:38;;;;;;;;;14.00;14.00;;;;;19.72;86.50;100025.44;6285372;20;2490349;-60
2022/08/09 00:12:09;;;;;;;;;13.50;13.00;;;;;19.44;86.65;100030.75;6291397;20;2794044;-60
2022/08/09 00:14:51;;;;;;;;;14.67;14.67;;;;;19.67;86.27;100023.19;6284349;20;3530441;-59
2022/08/09 00:17:24;;;;;;;;;13.00;13.00;;;;;19.64;86.72;100018.00;6284650;20;3523202;-60
2022/08/09 00:20:13;;;;;;;;;13.33;13.33;;;;;19.46;87.84;100015.13;6284409;20;3530444;-60
2022/08/09 00:22:41;;;;;;;;;14.00;14.00;;;;;19.36;87.93;100022.44;6284952;20;2483700;-60
2022/08/09 00:25:15;;;;;;;;;13.67;13.00;;;;;19.67;86.91;100016.88;6285258;20;3531513;-60
2022/08/09 00:27:59;;;;;;;;;14.00;14.00;;;;;19.71;86.44;100018.28;6286101;20;2489859;-59
2022/08/09 00:30:32;;;;;;;;;15.50;15.50;;;;;19.71;86.71;100013.69;6284885;20;2819450;-60
2022/08/09 00:33:01;;;;;;;;;16.50;15.50;;;;;19.49;87.32;100014.84;6289523;20;2823280;-60
2022/08/09 00:35:31;;;;;;;;;15.00;15.00;;;;;19.62;86.80;100013.69;6285098;20;3535674;-60
2022/08/09 00:38:12;;;;;;;;;18.67;14.67;;;;;19.59;87.37;100016.69;6288193;20;3540860;-60
2022/08/09 00:40:43;;;;;;;;;16.00;14.00;;;;;19.61;86.99;100014.69;6287112;20;2483628;-60
2022/08/09 00:43:22;;;;;;;;;16.50;16.00;;;;;19.67;86.39;100014.16;6287269;20;2831655;-60
2022/08/09 00:46:11;;;;;;;;;17.00;16.00;;;;;19.55;87.33;100012.56;6285832;20;2496086;-60
2022/08/09 00:48:59;;;;;;;;;17.00;16.00;;;;;19.40;87.87;100014.84;6316358;20;2489948;-60
2022/08/09 00:51:28;;;;;;;;;15.67;14.67;;;;;19.38;88.46;100016.84;6283075;20;3539830;-60
2022/08/09 00:54:09;;;;;;;;;17.00;13.00;;;;;19.37;88.54;100012.41;6283771;20;2487812;-60
2022/08/09 00:56:37;;;;;;;;;16.50;15.00;;;;;19.59;87.64;100013.97;6285666;20;2487741;-60
2022/08/09 00:59:06;;;;;;;;;16.33;15.33;;;;;19.56;88.08;100008.81;6286042;20;3556645;-60
2022/08/09 01:01:40;;;;;;;;;15.67;15.67;;;;;19.68;86.80;100007.69;6284398;20;3558651;-60
2022/08/09 01:04:34;;;;;;;;;19.00;17.33;;;;;19.45;87.95;99998.94;6285506;20;2844193;-60
2022/08/09 01:08:04;;;;;;;;;17.00;15.00;;;;;19.47;88.07;100000.50;6315199;20;2816922;-60
2022/08/09 01:11:20;;;;;;;;;20.00;18.00;;;;;19.29;88.98;99999.50;6278534;20;2842128;-59
2022/08/09 01:14:17;;;;;;;;;13.67;13.67;;;;;19.42;89.05;99997.34;6280616;20;3531663;-60
2022/08/09 01:16:54;;;;;;;;;17.00;16.00;;;;;19.38;88.83;100001.38;6280146;20;2825266;-60
2022/08/09 01:20:19;;;;;;;;;18.00;16.50;;;;;19.34;89.23;100010.81;6281514;20;2827457;-61
2022/08/09 01:23:20;;;;;;;;;18.00;15.50;;;;;19.30;90.23;100004.81;6285492;20;2483739;-60
2022/08/09 01:26:35;;;;;;;;;12.00;12.00;;;;;19.34;89.79;100004.53;6279898;20;2496080;-53
2022/08/09 01:29:05;;;;;;;;;18.00;15.50;;;;;19.24;90.14;100004.50;6286620;20;2822186;-46
2022/08/09 01:31:36;;;;;;;;;19.00;16.50;;;;;19.40;89.41;100007.53;6279109;20;2831614;-60
2022/08/09 01:34:28;;;;;;;;;17.00;17.00;;;;;19.31;89.63;100008.41;6278405;20;2492001;-60
2022/08/09 01:36:59;;;;;;;;;17.00;17.00;;;;;19.25;89.62;100000.81;6282650;20;2494448;-60
2022/08/09 01:39:33;;;;;;;;;19.00;16.00;;;;;19.44;89.28;99999.94;6283153;20;2496211;-60
2022/08/09 01:42:04;;;;;;;;;19.00;18.00;;;;;19.46;88.97;100001.53;6277008;20;2491925;-60
2022/08/09 01:44:40;;;;;;;;;18.00;17.50;;;;;19.32;90.41;100004.66;6312524;20;2823199;-60
2022/08/09 01:47:09;;;;;;;;;16.50;14.50;;;;;19.34;89.63;99999.94;6278345;20;2491916;-60
2022/08/09 01:49:41;;;;;;;;;18.00;17.50;;;;;19.39;89.50;99997.63;6280592;20;2831507;-60
2022/08/09 01:52:19;;;;;;;;;20.00;20.00;;;;;19.39;89.68;100005.81;6283223;20;2833587;-60
2022/08/09 01:54:56;;;;;;;;;17.67;16.00;;;;;19.33;89.88;99990.06;6277750;20;2483678;-59
2022/08/09 01:57:36;;;;;;;;;18.50;18.50;;;;;19.37;89.77;99983.31;6310792;20;2833755;-60
2022/08/09 02:00:14;;;;;;;;;17.50;16.50;;;;;19.42;89.64;99982.88;6280059;20;2835666;-60
2022/08/09 02:03:06;;;;;;;;;18.00;18.00;;;;;19.53;89.02;99988.16;6282014;20;2496082;-60
2022/08/09 02:05:43;;;;;;;;;17.33;17.00;;;;;19.45;89.16;99986.16;6314780;20;3560631;-60
2022/08/09 02:08:40;;;;;;;;;17.50;17.50;;;;;19.43;89.16;99982.75;6280095;20;2822263;-60
2022/08/09 02:11:28;;;;;;;;;18.50;16.00;;;;;19.47;89.20;99995.06;6283902;20;2827374;-60
2022/08/09 02:14:15;;;;;;;;;15.00;15.00;;;;;19.41;89.36;99989.34;6291042;20;3540836;-59
2022/08/09 02:16:55;;;;;;;;;19.00;16.00;;;;;19.47;89.19;99994.19;6316770;20;3566869;-60
2022/08/09 02:19:44;;;;;;;;;15.50;15.50;;;;;19.51;88.83;99996.50;6313796;20;2819120;-60
2022/08/09 02:22:42;;;;;;;;;16.00;16.00;;;;;19.33;89.44;99998.22;6284718;20;2831701;-59
2022/08/09 02:25:23;;;;;;;;;19.50;17.50;;;;;19.36;89.81;99981.59;6281194;20;2819145;-60
2022/08/09 02:28:20;;;;;;;;;16.67;16.67;;;;;19.41;89.12;99982.03;6281299;20;2829408;-60
2022/08/09 02:31:05;;;;;;;;;16.33;14.33;;;;;19.16;90.51;99986.16;6313326;20;3535727;-60
2022/08/09 02:33:40;;;;;;;;;16.00;16.00;;;;;19.19;90.52;99985.88;6312636;20;2829498;-60
2022/08/09 02:36:41;;;;;;;;;14.00;14.00;;;;;19.14;90.80;99987.31;6281061;20;2492021;-61
2022/08/09 02:39:18;;;;;;;;;15.00;15.00;;;;;19.30;89.85;99993.06;6283193;20;2491954;-62
2022/08/09 02:42:19;;;;;;;;;17.00;17.00;;;;;19.30;89.50;99993.94;6280476;20;2828492;-62
2022/08/09 02:45:14;;;;;;;;;16.50;16.50;;;;;19.43;88.76;99990.03;6277511;20;2483831;-61
2022/08/09 02:47:45;;;;;;;;;16.00;16.00;;;;;19.01;90.70;99988.47;6278626;20;2483580;-62
2022/08/09 02:50:38;;;;;;;;;18.00;15.00;;;;;19.20;89.63;99982.16;6278251;20;2825320;-61
2022/08/09 02:53:25;;;;;;;;;18.00;17.00;;;;;19.34;89.17;99988.19;6279224;20;2485857;-61
2022/08/09 02:55:57;;;;;;;;;19.00;18.00;;;;;19.46;88.46;99993.34;6277327;20;2483576;-61
2022/08/09 02:58:31;;;;;;;;;17.00;17.00;;;;;19.43;87.78;99992.75;6280163;20;2829504;-61
2022/08/09 03:01:07;;;;;;;;;17.00;16.00;;;;;19.36;88.19;99981.59;6276083;20;2489817;-61
2022/08/09 03:03:50;;;;;;;;;23.00;20.00;;;;;19.30;88.55;99988.47;6277780;20;2832538;-61
2022/08/09 03:06:41;;;;;;;;;17.00;16.00;;;;;19.24;89.05;99985.44;6281110;20;2825262;-61
2022/08/09 03:09:14;;;;;;;;;20.00;18.50;;;;;19.05;89.65;99984.44;6281305;20;2829439;-62
2022/08/09 03:11:47;;;;;;;;;16.33;16.33;;;;;19.25;89.58;99981.75;6283308;20;3562752;-60
2022/08/09 03:14:38;;;;;;;;;18.67;18.00;;;;;19.14;89.73;99977.31;6283395;20;3567087;-60
2022/08/09 03:17:10;;;;;;;;;20.50;17.50;;;;;18.99;90.09;99974.13;6276805;20;2839844;-61
2022/08/09 03:20:00;;;;;;;;;15.67;15.67;;;;;19.15;89.59;99978.16;6284806;20;3558538;-60
2022/08/09 03:22:43;;;;;;;;;19.00;17.67;;;;;19.18;89.62;99976.00;6314570;20;3564001;-61
2022/08/09 03:25:13;;;;;;;;;17.00;17.00;;;;;19.17;89.82;99978.84;6314770;20;3564817;-60
2022/08/09 03:28:04;;;;;;;;;18.00;17.00;;;;;18.99;90.38;99979.56;6310233;20;2839862;-61
2022/08/09 03:30:39;;;;;;;;;19.50;16.00;;;;;18.95;90.90;99978.13;6277698;20;2827334;-61
2022/08/09 03:33:13;;;;;;;;;20.00;20.00;;;;;19.04;90.68;99980.00;6280511;20;2832557;-61
2022/08/09 03:35:51;;;;;;;;;17.00;16.00;;;;;19.01;90.34;99988.47;6279909;20;2824409;-61
2022/08/09 03:38:42;;;;;;;;;17.50;16.50;;;;;19.06;90.14;99986.19;6288235;20;2834026;-61
2022/08/09 03:41:14;;;;;;;;;18.00;17.50;;;;;18.94;91.12;99981.84;6283519;20;2829454;-62
2022/08/09 03:43:46;;;;;;;;;17.67;16.67;;;;;19.01;90.46;99977.56;6291718;20;3571087;-62
2022/08/09 03:46:35;;;;;;;;;17.00;15.50;;;;;18.99;90.14;99976.84;6318283;20;2492029;-61
2022/08/09 03:49:05;;;;;;;;;18.50;18.00;;;;;19.13;89.82;99980.16;6288762;20;2830488;-61
2022/08/09 03:51:41;;;;;;;;;16.50;16.00;;;;;19.02;90.01;99978.44;6285265;20;2826442;-59
2022/08/09 03:54:36;;;;;;;;;22.00;18.00;;;;;19.21;89.06;99980.31;6283061;20;2835836;-60
2022/08/09 03:57:13;;;;;;;;;19.50;19.50;;;;;19.14;89.17;99981.88;6283298;20;2827363;-59
2022/08/09 03:59:51;;;;;;;;;17.00;17.00;;;;;19.05;89.25;99976.28;6284567;20;2830514;-59
2022/08/09 04:02:28;;;;;;;;;18.67;17.33;;;;;19.14;88.82;99984.59;6285008;20;2491959;-59
2022/08/09 04:05:00;;;;;;;;;19.00;16.00;;;;;19.16;88.63;99983.44;6320396;20;3558641;-59
2022/08/09 04:07:34;;;;;;;;;18.00;18.00;;;;;19.14;89.08;99987.31;6281775;20;2831556;-59
2022/08/09 04:10:25;;;;;;;;;16.00;16.00;;;;;19.20;88.38;99986.75;6285574;20;2821145;-59
2022/08/09 04:12:59;;;;;;;;;18.00;15.00;;;;;19.26;88.15;99992.47;6288938;20;2821552;-59
2022/08/09 04:15:32;;;;;;;;;15.67;15.67;;;;;19.16;88.78;99986.16;6285991;20;3552342;-59
2022/08/09 04:18:20;;;;;;;;;18.00;16.50;;;;;19.11;88.71;99993.88;6288758;20;2835659;-61
2022/08/09 04:20:52;;;;;;;;;18.33;16.67;;;;;18.96;89.01;99995.34;6283900;20;3557650;-60
2022/08/09 04:23:22;;;;;;;;;16.00;16.00;;;;;19.16;88.98;99999.78;6287265;20;2829411;-62
2022/08/09 04:25:54;;;;;;;;;15.00;15.00;;;;;19.31;87.65;100005.66;6286469;20;2808572;-61
2022/08/09 04:28:24;;;;;;;;;15.00;14.00;;;;;19.21;88.36;99994.75;6282519;20;2805496;-62
2022/08/09 04:31:06;;;;;;;;;15.00;14.00;;;;;19.28;87.60;100011.41;6286765;20;2810653;-60
2022/08/09 04:33:41;;;;;;;;;24.33;20.67;;;;;19.20;88.38;100008.53;6285997;20;3583599;-58
2022/08/09 04:36:28;;;;;;;;;21.67;19.00;;;;;19.26;87.66;100019.69;6316789;20;3570147;-60
2022/08/09 04:39:02;;;;;;;;;23.00;21.50;;;;;19.23;87.85;100017.28;6318187;20;2829610;-60
2022/08/09 04:41:32;;;;;;;;;19.33;18.00;;;;;19.22;87.63;100009.22;6286942;20;2838809;-60
2022/08/09 04:44:11;;;;;;;;;17.67;17.67;;;;;19.29;87.57;100018.56;6320146;20;3568106;-60
2022/08/09 04:46:42;;;;;;;;;18.67;18.67;;;;;19.31;87.15;100019.28;6282954;20;2860693;-61
2022/08/09 04:49:32;;;;;;;;;20.00;18.50;;;;;19.30;86.80;100021.16;6315392;20;2835804;-60
2022/08/09 04:52:26;;;;;;;;;19.00;15.50;;;;;19.34;87.07;100023.59;6285647;20;2826337;-60
2022/08/09 04:54:58;;;;;;;;;15.50;15.50;;;;;19.57;85.79;100021.44;6286305;20;2818154;-60
2022/08/09 04:57:27;;;;;;;;;15.50;15.00;;;;;19.56;85.87;100036.03;6287185;20;2483711;-60
2022/08/09 05:00:17;;;;;;;;;20.00;18.00;;;;;19.51;85.96;100034.63;6285390;20;2831742;-60
2022/08/09 05:02:47;;;;;;;;;17.00;15.00;;;;;19.58;85.40;100034.03;6285811;20;2820128;-60
2022/08/09 05:05:20;;;;;;;;;16.50;16.50;;;;;19.42;86.20;100035.47;6283740;20;2487753;-60
2022/08/09 05:08:09;;;;;;;;;13.67;13.67;;;;;19.62;85.08;100038.22;6284173;20;3539853;-60
2022/08/09 05:10:43;;;;;;;;;17.00;17.00;;;;;19.53;86.00;100045.38;6283620;20;2833601;-60
2022/08/09 05:13:13;;;;;;;;;16.00;13.67;;;;;19.59;86.01;100044.81;6283029;20;3531611;-60
2022/08/09 05:15:41;;;;;;;;;16.67;16.67;;;;;19.65;85.30;100041.50;6281558;20;2491896;-60
2022/08/09 05:18:28;;;;;;;;;17.00;16.00;;;;;19.81;84.69;100040.94;6316949;20;2485690;-61
2022/08/09 05:21:17;;;;;;;;;15.33;15.00;;;;;19.66;84.65;100043.25;6284617;20;2491971;-61
2022/08/09 05:23:52;;;;;;;;;19.67;18.00;;;;;19.73;84.72;100044.41;6316831;20;3562775;-61
2022/08/09 05:26:29;;;;;;;;;14.00;14.00;;;;;19.78;84.10;100052.16;6284404;20;2483607;-61
2022/08/09 05:29:20;;;;;;;;;16.00;16.00;;;;;19.80;83.79;100050.13;6282710;20;2489981;-61
2022/08/09 05:31:53;;;;;;;;;16.00;16.00;;;;;19.83;83.75;100055.28;6286393;20;2491934;-61
2022/08/09 05:34:30;;;;;;;;;16.00;15.50;;;;;19.78;83.57;100051.28;6285858;20;2489983;-61
2022/08/09 05:37:04;;;;;;;;;18.33;15.33;;;;;19.56;84.80;100055.97;6280743;20;2496197;-61
2022/08/09 05:39:40;;;;;;;;;16.00;15.00;;;;;19.74;83.70;100058.88;6317392;20;2815944;-61
2022/08/09 05:42:14;;;;;;;;;17.00;16.00;;;;;19.84;83.65;100061.59;6284472;20;2491905;-61
2022/08/09 05:44:51;;;;;;;;;15.50;15.50;;;;;20.03;82.03;100063.44;6284396;20;2492113;-61
2022/08/09 05:47:22;;;;;;;;;17.00;14.00;;;;;19.97;82.39;100066.75;6284387;20;3544017;-61
2022/08/09 05:49:53;;;;;;;;;17.50;13.50;;;;;19.85;82.43;100063.31;6286370;20;2491921;-61
2022/08/09 05:52:43;;;;;;;;;15.67;15.00;;;;;20.04;82.27;100074.19;6288797;20;2812739;-61
2022/08/09 05:55:21;;;;;;;;;13.00;12.00;;;;;20.26;81.03;100062.09;6318282;20;2786983;-62
2022/08/09 05:57:51;;;;;;;;;16.00;15.00;;;;;20.63;78.22;100074.06;6283000;20;2808582;-63
2022/08/09 06:00:29;;;;;;;;;12.00;12.00;;;;;20.76;77.43;100071.88;6280509;20;3515993;-62
2022/08/09 06:03:03;;;;;;;;;13.33;13.33;;;;;21.13;77.42;100071.81;6283914;20;3531648;-61
2022/08/09 06:05:46;;;;;;;;;14.00;12.33;;;;;20.99;77.07;100075.06;6286093;20;2485697;-62
2022/08/09 06:08:32;;;;;;;;;15.67;15.67;;;;;21.82;73.27;100077.66;6316924;20;3543089;-61
2022/08/09 06:11:01;;;;;;;;;14.33;12.67;;;;;21.63;74.48;100074.06;6312225;20;2488211;-62
2022/08/09 06:13:45;;;;;;;;;15.00;14.00;;;;;21.81;72.55;100084.16;6314823;20;2812744;-62
2022/08/09 06:16:14;;;;;;;;;11.67;11.00;;;;;20.86;76.02;100086.31;6280761;20;3520047;-62
2022/08/09 06:18:44;;;;;;;;;14.00;13.67;;;;;20.73;76.69;100083.94;6318251;20;2487822;-62
2022/08/09 06:21:12;;;;;;;;;12.33;12.33;;;;;21.65;73.02;100080.25;6315498;20;3529389;-62
2022/08/09 06:23:43;;;;;;;;;12.00;10.33;;;;;21.73;72.77;100084.06;6283175;20;3517996;-62
2022/08/09 06:26:29;;;;;;;;;12.00;12.00;;;;;21.97;71.93;100081.53;6314263;20;3524219;-61
2022/08/09 06:28:59;;;;;;;;;17.00;16.00;;;;;21.60;74.26;100084.47;6313361;20;2825419;-61
2022/08/09 06:31:34;;;;;;;;;14.00;13.00;;;;;22.01;72.80;100091.16;6286763;20;2492000;-61
2022/08/09 06:34:23;;;;;;;;;14.00;14.00;;;;;21.87;73.03;100086.25;6313252;20;3533559;-61
2022/08/09 06:36:57;;;;;;;;;14.00;14.00;;;;;22.06;73.27;100086.03;6282779;20;3533614;-61
2022/08/09 06:39:29;;;;;;;;;14.50;14.00;;;;;22.49;71.00;100081.63;6284260;20;2812793;-61
2022/08/09 06:42:20;;;;;;;;;13.67;13.67;;;;;22.22;71.78;100087.22;6282034;20;3534713;-61
2022/08/09 06:44:55;;;;;;;;;15.00;12.33;;;;;22.63;70.48;100082.03;6281743;20;2492182;-61
2022/08/09 06:47:24;;;;;;;;;11.00;11.00;;;;;22.88;69.50;100086.63;6313468;20;3522221;-62
2022/08/09 06:50:08;;;;;;;;;15.00;15.00;;;;;22.86;69.46;100087.81;6318741;20;3533820;-61
2022/08/09 06:52:47;;;;;;;;;12.33;12.00;;;;;24.84;63.30;100093.34;6314205;20;3528471;-62
2022/08/09 06:55:22;;;;;;;;;12.33;12.33;;;;;24.39;63.23;100089.28;6282188;20;3527774;-54
2022/08/09 06:57:51;;;;;;;;;13.33;11.33;;;;;25.07;62.41;100087.94;6283814;20;3507544;-52
2022/08/09 07:00:35;;;;;;;;;12.00;12.00;;;;;25.70;59.14;100097.91;6317981;20;3533617;-51
2022/08/09 07:03:25;;;;;;;;;14.33;10.33;;;;;25.04;60.75;100094.63;6314581;20;2492397;-52
2022/08/09 07:05:57;;;;;;;;;15.67;14.00;;;;;25.09;59.72;100100.44;6316515;20;2483581;-49
2022/08/09 07:08:35;;;;;;;;;14.00;10.67;;;;;25.70;58.28;100097.03;6314607;20;3508571;-51
2022/08/09 07:11:07;;;;;;;;;13.33;13.33;;;;;26.92;55.28;100103.34;6283603;20;3520307;-46
2022/08/09 07:13:40;;;;;;;;;12.33;12.33;;;;;26.58;55.43;100101.16;6291593;20;2801441;-49
2022/08/09 07:16:44;;;;;;;;;13.00;13.00;;;;;25.43;57.60;100104.75;6313471;20;3527589;-51
2022/08/09 07:19:49;;;;;;;;;13.33;11.00;;;;;26.08;56.82;100097.13;6286985;20;2483712;-55
2022/08/09 07:22:23;;;;;;;;;11.00;11.00;;;;;27.23;53.25;100105.94;6311403;20;3512769;-52
2022/08/09 07:25:06;;;;;;;;;10.00;10.00;;;;;26.08;56.43;100099.88;6309652;20;2783673;-52
2022/08/09 07:27:42;;;;;;;;;9.67;9.67;;;;;25.13;58.45;100096.28;6327203;20;2781661;-50
2022/08/09 07:31:29;;;;;;;;;12.33;11.67;;;;;26.14;56.98;100101.88;6315072;20;3545111;-48
2022/08/09 07:34:08;;;;;;;;;14.00;13.00;;;;;27.56;53.24;100106.31;6278504;20;3525375;-52
2022/08/09 07:46:39;;;;;;;;;13.33;12.33;;;;;27.21;54.47;100097.00;6317602;20;3526391;-48
2022/08/09 07:53:11;;;;;;;;;11.00;11.00;;;;;27.50;53.24;100093.31;6310140;20;3510668;-59
2022/08/09 07:56:00;;;;;;;;;13.33;10.67;;;;;26.41;55.21;100087.53;6287004;20;3506496;-59
2022/08/09 07:58:34;;;;;;;;;13.67;11.67;;;;;27.63;51.53;100091.75;6285827;20;3525236;-50
2022/08/09 08:01:02;;;;;;;;;11.00;11.00;;;;;28.01;51.54;100095.13;6317216;20;3521064;-62
2022/08/09 08:03:39;;;;;;;;;7.00;7.00;;;;;28.21;50.02;100101.69;6310378;20;2742103;-54
2022/08/09 08:06:09;;;;;;;;;10.00;10.00;;;;;27.72;51.52;100093.31;6295263;20;2777363;-55
2022/08/09 08:08:48;;;;;;;;;11.67;11.67;;;;;27.17;52.68;100094.75;6322385;20;3526262;-53
2022/08/09 08:11:31;;;;;;;;;13.50;13.00;;;;;25.59;56.51;100095.56;6316168;20;2795164;-52
2022/08/09 08:14:20;;;;;;;;;16.33;13.00;;;;;25.62;56.72;100095.22;6281070;20;3534685;-56
2022/08/09 08:16:51;;;;;;;;;12.00;11.00;;;;;25.58;56.99;100091.94;6285683;20;3534711;-54
2022/08/09 08:19:36;;;;;;;;;13.00;13.00;;;;;26.81;53.61;100099.19;6287057;20;3508687;-55
2022/08/09 08:22:05;;;;;;;;;14.00;12.67;;;;;26.04;54.96;100097.50;6286256;20;3527413;-51
2022/08/09 08:24:36;;;;;;;;;12.00;10.00;;;;;26.39;54.56;100092.38;6310953;20;2790882;-54
2022/08/09 08:27:08;;;;;;;;;12.67;12.67;;;;;26.78;53.00;100095.94;6290836;20;3528342;-52
2022/08/09 08:29:44;;;;;;;;;11.00;11.00;;;;;27.09;53.24;100098.47;6319539;20;3521146;-51
2022/08/09 08:32:19;;;;;;;;;13.67;11.67;;;;;26.28;54.45;100092.81;6314391;20;3516899;-55
2022/08/09 08:34:58;;;;;;;;;9.00;9.00;;;;;28.01;50.52;100103.41;6294197;20;2764866;-54
2022/08/09 08:37:27;;;;;;;;;7.67;6.33;;;;;26.18;54.15;100094.97;6318786;20;2741957;-55
2022/08/09 08:40:10;;;;;;;;;12.33;12.33;;;;;27.79;51.20;100088.72;6320349;20;2483641;-61
2022/08/09 08:42:43;;;;;;;;;14.00;10.00;;;;;28.22;49.51;100100.63;6321199;20;2780568;-61
2022/08/09 08:45:43;;;;;;;;;12.33;11.33;;;;;28.30;49.26;100096.03;6312728;20;3523190;-62
2022/08/09 08:48:22;;;;;;;;;10.00;9.00;;;;;28.05;50.12;100099.22;6293086;20;2775366;-62
2022/08/09 08:50:57;;;;;;;;;14.33;12.00;;;;;28.44;49.02;100098.72;6312622;20;3508639;-61
2022/08/09 08:53:27;;;;;;;;;11.67;10.00;;;;;28.19;49.33;100101.03;6286757;20;2783677;-60
2022/08/09 08:56:06;;;;;;;;;11.00;11.00;;;;;28.57;48.55;100105.38;6312008;20;3515861;-61
2022/08/09 08:58:55;;;;;;;;;13.33;11.33;;;;;26.21;54.53;100092.69;6314172;20;3530483;-61
2022/08/09 09:01:24;;;;;;;;;12.33;9.00;;;;;28.98;48.70;100099.91;6283169;20;3484747;-60
2022/08/09 09:04:13;;;;;;;;;14.00;13.00;;;;;29.17;47.53;100092.81;6317277;20;3520042;-52
2022/08/09 09:06:59;;;;;;;;;13.33;11.33;;;;;29.24;47.33;100098.38;6316525;20;2485691;-55
2022/08/09 09:09:30;;;;;;;;;13.00;11.33;;;;;29.29;47.14;100096.69;6311617;20;3512710;-53
2022/08/09 09:12:25;;;;;;;;;11.33;11.33;;;;;29.60;46.96;100091.72;6316844;20;3525651;-51
2022/08/09 09:15:01;;;;;;;;;11.00;10.00;;;;;27.61;51.15;100088.34;6318364;20;3500356;-61
2022/08/09 09:17:29;;;;;;;;;9.00;9.00;;;;;28.78;47.85;100096.19;6314970;20;3466007;-61
2022/08/09 09:20:18;;;;;;;;;11.00;11.00;;;;;29.01;47.62;100090.34;6309937;20;3518042;-60
2022/08/09 09:22:58;;;;;;;;;11.67;9.67;;;;;28.53;47.72;100096.66;6312573;20;3503430;-60
2022/08/09 09:25:42;;;;;;;;;12.33;11.00;;;;;28.94;47.11;100101.41;6279916;20;3516059;-61
2022/08/09 09:28:36;;;;;;;;;10.00;9.00;;;;;28.82;47.10;100105.78;6277824;20;2762968;-61
2022/08/09 09:31:24;;;;;;;;;8.67;8.00;;;;;28.41;47.73;100096.34;6314049;20;3469108;-61
2022/08/09 09:34:14;;;;;;;;;9.00;9.00;;;;;29.00;47.13;100092.28;6312916;20;2745153;-61
2022/08/09 09:36:46;;;;;;;;;11.00;9.33;;;;;28.08;49.39;100090.53;6310863;20;3496066;-61
2022/08/09 09:39:25;;;;;;;;;11.67;11.67;;;;;28.58;48.33;100087.78;6315889;20;2779483;-61
2022/08/09 09:42:28;;;;;;;;;13.00;11.00;;;;;29.38;47.02;100096.50;6312411;20;2789995;-61
2022/08/09 09:45:05;;;;;;;;;15.67;12.00;;;;;29.75;44.89;100100.69;6315189;20;2480204;-61
2022/08/09 09:47:35;;;;;;;;;9.67;9.67;;;;;29.04;46.94;100099.16;6312963;20;3492030;-61
2022/08/09 09:50:21;;;;;;;;;13.00;10.67;;;;;29.65;45.32;100105.78;6311832;20;3512874;-62
2022/08/09 09:52:54;;;;;;;;;10.33;9.67;;;;;29.88;44.80;100100.72;6287469;20;2784804;-51
2022/08/09 09:55:24;;;;;;;;;11.33;8.33;;;;;29.37;45.36;100103.97;6313530;20;3490926;-62
2022/08/09 09:58:08;;;;;;;;;11.67;11.67;;;;;29.07;45.84;100093.19;6313099;20;3514863;-64
2022/08/09 10:00:56;;;;;;;;;11.00;9.00;;;;;29.52;45.04;100096.38;6316497;20;2724231;-62
2022/08/09 10:03:51;;;;;;;;;9.67;9.67;;;;;30.28;43.32;100098.03;6315211;20;3495183;-62
2022/08/09 10:06:41;;;;;;;;;13.00;11.00;;;;;30.44;43.26;100101.41;6318401;20;2487731;-62
2022/08/09 10:09:15;;;;;;;;;10.00;10.00;;;;;29.98;43.75;100098.38;6310863;20;3510733;-61
2022/08/09 10:12:34;;;;;;;;;11.67;10.33;;;;;28.93;45.21;100088.63;6285171;20;2483725;-61
2022/08/09 10:15:16;;;;;;;;;9.00;8.00;;;;;29.47;44.40;100093.38;6313893;20;2741978;-61
2022/08/09 10:18:11;;;;;;;;;12.33;11.00;;;;;28.88;45.57;100086.50;6321022;20;3510698;-60
2022/08/09 10:20:40;;;;;;;;;21.67;21.00;;;;;29.95;44.61;100076.66;6316298;20;3581546;-62
2022/08/09 10:23:16;;;;;;;;;13.67;11.33;;;;;30.04;43.40;100084.75;6284882;20;3514975;-62
2022/08/09 10:25:49;;;;;;;;;10.67;10.67;;;;;30.23;42.71;100081.19;6282707;20;3512762;-61
2022/08/09 10:28:41;;;;;;;;;13.50;12.50;;;;;30.36;42.97;100083.97;6310566;20;2779422;-61
2022/08/09 10:31:17;;;;;;;;;9.33;9.33;;;;;30.05;43.05;100078.19;6287335;20;2758592;-60
2022/08/09 10:34:10;;;;;;;;;11.00;10.00;;;;;30.04;42.98;100079.22;6321360;20;2778417;-60
2022/08/09 10:36:59;;;;;;;;;10.00;9.00;;;;;29.59;43.25;100070.59;6303570;20;3481472;-63
2022/08/09 10:39:29;;;;;;;;;9.00;9.00;;;;;29.48;44.34;100067.38;6307541;20;3463906;-63
2022/08/09 10:42:17;;;;;;;;;12.33;12.00;;;;;29.85;44.00;100061.53;6311532;20;3527435;-60
2022/08/09 10:45:04;;;;;;;;;10.00;10.00;;;;;30.26;42.38;100066.06;6305997;20;3508605;-62
2022/08/09 10:48:23;;;;;;;;;8.67;8.67;;;;;30.01;42.83;100071.34;6319990;20;3485706;-62
2022/08/09 10:51:49;;;;;;;;;6.33;6.33;;;;;30.52;42.65;100062.44;6320713;20;2740371;-62
2022/08/09 10:54:24;;;;;;;;;8.00;8.00;;;;;29.39;43.12;100065.03;6323935;20;2756577;-60
2022/08/09 10:57:14;;;;;;;;;10.33;9.00;;;;;31.03;40.84;100070.00;6316955;20;3484601;-62
2022/08/09 10:59:44;;;;;;;;;8.00;8.00;;;;;29.54;42.92;100060.16;6319438;20;2746278;-67
2022/08/09 11:02:39;;;;;;;;;10.33;10.00;;;;;28.59;44.63;100051.63;6317481;20;3507529;-60
2022/08/09 11:05:28;;;;;;;;;9.00;9.00;;;;;30.01;42.35;100054.72;6313758;20;2749309;-59
2022/08/09 11:08:44;;;;;;;;;11.00;11.00;;;;;30.31;42.96;100047.72;6313799;20;3513909;-58
2022/08/09 11:11:20;;;;;;;;;10.33;10.00;;;;;30.93;42.05;100048.25;6291905;20;2779521;-59
2022/08/09 11:14:34;;;;;;;;;14.00;11.67;;;;;30.42;41.06;100050.91;6322345;20;2788964;-59
2022/08/09 11:17:25;;;;;;;;;9.33;9.33;;;;;29.69;42.78;100046.19;6313252;20;2754593;-59
2022/08/09 11:20:10;;;;;;;;;12.00;9.67;;;;;29.40;43.48;100048.22;6317986;20;2483605;-60
2022/08/09 11:22:50;;;;;;;;;15.67;12.67;;;;;29.97;43.24;100035.78;6319847;20;3533729;-59
2022/08/09 11:25:28;;;;;;;;;7.67;7.67;;;;;29.51;43.30;100042.06;6289386;20;2737751;-61
2022/08/09 11:28:39;;;;;;;;;10.33;10.33;;;;;29.27;43.67;100042.63;6323562;20;2788823;-60
2022/08/09 11:31:47;;;;;;;;;9.00;9.00;;;;;28.97;44.79;100034.63;6317631;20;3458565;-61
2022/08/09 11:34:53;;;;;;;;;7.00;5.00;;;;;29.59;43.04;100035.47;6327920;20;2750380;-58
2022/08/09 11:37:29;;;;;;;;;9.00;8.33;;;;;30.04;41.98;100037.69;6311922;20;3464860;-59
2022/08/09 11:40:31;;;;;;;;;4.33;4.33;;;;;29.58;42.35;100038.47;6366748;20;3461738;-60
2022/08/09 11:43:02;;;;;;;;;9.33;9.33;;;;;29.79;42.83;100034.72;6318642;20;3482653;-60
2022/08/09 11:45:39;;;;;;;;;11.67;10.33;;;;;29.67;43.91;100026.16;6320069;20;3512761;-56
2022/08/09 11:48:21;;;;;;;;;10.00;9.33;;;;;30.23;42.22;100033.19;6321695;20;2760815;-59
2022/08/09 11:51:00;;;;;;;;;11.67;9.00;;;;;30.19;42.11;100030.00;6319615;20;2772152;-59
2022/08/09 11:54:15;;;;;;;;;11.00;9.00;;;;;30.52;41.52;100030.00;6318435;20;3488787;-59
2022/08/09 11:57:38;;;;;;;;;10.67;9.33;;;;;29.62;42.16;100029.56;6322037;20;2780473;-59
2022/08/09 12:00:31;;;;;;;;;11.00;11.00;;;;;29.41;43.22;100013.97;6316665;20;3515935;-59
2022/08/09 12:03:01;;;;;;;;;8.33;8.33;;;;;28.97;43.85;100020.81;6282363;20;3460728;-58
2022/08/09 12:05:54;;;;;;;;;10.00;10.00;;;;;28.98;43.76;100016.13;6317844;20;3510651;-58
2022/08/09 12:08:25;;;;;;;;;13.00;11.00;;;;;29.27;42.92;100009.44;6319315;20;3514875;-58
2022/08/09 12:11:00;;;;;;;;;12.33;8.67;;;;;29.67;42.17;100015.94;6318501;20;2767134;-58
2022/08/09 12:13:46;;;;;;;;;10.33;10.33;;;;;29.75;42.08;100017.66;6317593;20;3517919;-58
2022/08/09 12:16:41;;;;;;;;;12.00;11.00;;;;;31.08;40.70;100011.94;6314011;20;3504403;-58